createdAt,value
2017-06-12T00:00:38.423Z,0
2017-06-12T00:01:38.422Z,0
2017-06-12T00:02:38.415Z,0
2017-06-12T00:03:38.418Z,0
2017-06-12T00:04:38.413Z,0
2017-06-12T00:05:38.719Z,0
2017-06-12T00:06:38.716Z,0
2017-06-12T00:07:38.715Z,0
2017-06-12T00:08:38.101Z,0
2017-06-12T00:09:38.405Z,0
2017-06-12T00:10:38.707Z,0
2017-06-12T00:11:38.399Z,0
2017-06-12T00:12:38.720Z,0
2017-06-12T00:13:38.396Z,0
2017-06-12T00:14:38.700Z,0
2017-06-12T00:15:38.701Z,0
2017-06-12T00:16:37.782Z,0
2017-06-12T00:17:38.395Z,0
2017-06-12T00:18:38.391Z,0
2017-06-12T00:19:38.393Z,0
2017-06-12T00:20:38.691Z,0
2017-06-12T00:21:38.696Z,0
2017-06-12T00:22:38.080Z,0
2017-06-12T00:23:38.693Z,0
2017-06-12T00:24:38.684Z,0
2017-06-12T00:25:38.071Z,0
2017-06-12T00:26:38.381Z,0
2017-06-12T00:27:38.073Z,0
2017-06-12T00:28:38.677Z,0
2017-06-12T00:29:38.370Z,0
2017-06-12T00:30:38.676Z,0
2017-06-12T00:31:38.675Z,0
2017-06-12T00:32:38.676Z,0
2017-06-12T00:33:38.070Z,0
2017-06-12T00:34:38.668Z,0
2017-06-12T00:35:38.360Z,0
2017-06-12T00:36:38.662Z,0
2017-06-12T00:37:38.358Z,0
2017-06-12T00:38:38.663Z,0
2017-06-12T00:39:38.351Z,0
2017-06-12T00:40:38.351Z,0
2017-06-12T00:41:38.655Z,0
2017-06-12T00:42:38.662Z,0
2017-06-12T00:43:38.040Z,0
2017-06-12T00:44:38.655Z,0
2017-06-12T00:45:38.348Z,0
2017-06-12T00:46:38.344Z,0
2017-06-12T00:47:38.652Z,0
2017-06-12T00:48:38.655Z,0
2017-06-12T00:49:38.641Z,0
2017-06-12T00:50:38.660Z,0
2017-06-12T00:51:38.326Z,0
2017-06-12T00:52:38.028Z,0
2017-06-12T00:53:38.332Z,0
2017-06-12T00:54:38.327Z,0
2017-06-12T00:55:38.630Z,0
2017-06-12T00:56:38.339Z,0
2017-06-12T00:57:38.015Z,0
2017-06-12T00:58:38.324Z,0
2017-06-12T00:59:38.628Z,0
2017-06-12T01:00:38.325Z,0
2017-06-12T01:01:38.619Z,0
2017-06-12T01:02:38.621Z,0
2017-06-12T01:03:38.621Z,0
2017-06-12T01:04:38.620Z,0
2017-06-12T01:05:38.611Z,0
2017-06-12T01:06:38.614Z,0
2017-06-12T01:07:38.615Z,0
2017-06-12T01:08:38.611Z,0
2017-06-12T01:09:38.606Z,0
2017-06-12T01:10:38.605Z,0
2017-06-12T01:11:38.609Z,0
2017-06-12T01:12:38.605Z,0
2017-06-12T01:13:38.294Z,0
2017-06-12T01:14:38.293Z,0
2017-06-12T01:15:38.605Z,0
2017-06-12T01:16:38.291Z,0
2017-06-12T01:17:38.288Z,0
2017-06-12T01:18:38.287Z,0
2017-06-12T01:19:38.285Z,0
2017-06-12T01:20:38.281Z,0
2017-06-12T01:21:38.582Z,0
2017-06-12T01:22:38.584Z,0
2017-06-12T01:23:38.277Z,0
2017-06-12T01:24:38.272Z,0
2017-06-12T01:25:38.276Z,0
2017-06-12T01:26:38.268Z,0
2017-06-12T01:27:38.276Z,0
2017-06-12T01:28:38.585Z,0
2017-06-12T01:29:37.967Z,0
2017-06-12T01:30:38.265Z,0
2017-06-12T01:31:37.953Z,0
2017-06-12T01:32:38.262Z,0
2017-06-12T01:33:38.263Z,0
2017-06-12T01:34:38.560Z,0
2017-06-12T01:35:38.252Z,0
2017-06-12T01:36:38.250Z,0
2017-06-12T01:37:37.645Z,0
2017-06-12T01:38:38.554Z,0
2017-06-12T01:39:38.552Z,0
2017-06-12T01:40:38.246Z,0
2017-06-12T01:41:38.247Z,0
2017-06-12T01:42:38.547Z,0
2017-06-12T01:43:38.544Z,0
2017-06-12T01:44:37.934Z,0
2017-06-12T01:45:38.239Z,0
2017-06-12T01:46:38.541Z,0
2017-06-12T01:47:38.233Z,0
2017-06-12T01:48:38.534Z,0
2017-06-12T01:49:37.929Z,0
2017-06-12T01:50:38.225Z,0
2017-06-12T01:51:38.531Z,0
2017-06-12T01:52:38.531Z,0
2017-06-12T01:53:38.530Z,0
2017-06-12T01:54:38.220Z,0
2017-06-12T01:55:38.528Z,0
2017-06-12T01:56:38.539Z,0
2017-06-12T01:57:38.220Z,0
2017-06-12T01:58:38.211Z,0
2017-06-12T01:59:38.525Z,0
2017-06-12T02:00:38.517Z,0
2017-06-12T02:01:38.211Z,0
2017-06-12T02:02:37.903Z,0
2017-06-12T02:03:38.200Z,0
2017-06-12T02:04:38.507Z,0
2017-06-12T02:05:38.197Z,0
2017-06-12T02:06:38.509Z,0
2017-06-12T02:07:38.204Z,0
2017-06-12T02:08:38.502Z,0
2017-06-12T02:09:38.503Z,0
2017-06-12T02:10:38.497Z,0
2017-06-12T02:11:38.498Z,0
2017-06-12T02:12:38.187Z,0
2017-06-12T02:13:38.186Z,0
2017-06-12T02:14:38.489Z,0
2017-06-12T02:15:38.487Z,0
2017-06-12T02:16:38.488Z,0
2017-06-12T02:17:37.877Z,0
2017-06-12T02:18:38.484Z,0
2017-06-12T02:19:38.483Z,0
2017-06-12T02:20:38.173Z,0
2017-06-12T02:21:38.477Z,0
2017-06-12T02:22:38.168Z,0
2017-06-12T02:23:38.477Z,0
2017-06-12T02:24:37.859Z,0
2017-06-12T02:25:38.472Z,0
2017-06-12T02:26:38.468Z,0
2017-06-12T02:27:38.469Z,0
2017-06-12T02:28:38.157Z,0
2017-06-12T02:29:38.460Z,0
2017-06-12T02:30:38.467Z,0
2017-06-12T02:31:38.462Z,0
2017-06-12T02:32:38.461Z,0
2017-06-12T02:33:38.149Z,0
2017-06-12T02:34:38.152Z,0
2017-06-12T02:35:38.456Z,0
2017-06-12T02:36:38.140Z,0
2017-06-12T02:37:38.147Z,0
2017-06-12T02:38:38.448Z,0
2017-06-12T02:39:38.138Z,0
2017-06-12T02:40:38.449Z,0
2017-06-12T02:41:38.445Z,0
2017-06-12T02:42:38.444Z,0
2017-06-12T02:43:37.823Z,0
2017-06-12T02:44:38.136Z,0
2017-06-12T02:45:38.127Z,0
2017-06-12T02:46:38.434Z,0
2017-06-12T02:47:38.426Z,0
2017-06-12T02:48:38.430Z,0
2017-06-12T02:49:38.424Z,0
2017-06-12T02:50:38.421Z,0
2017-06-12T02:51:38.117Z,0
2017-06-12T02:52:37.532Z,0
2017-06-12T02:53:38.416Z,0
2017-06-12T02:54:38.109Z,0
2017-06-12T02:55:38.409Z,0
2017-06-12T02:56:38.425Z,0
2017-06-12T02:57:38.412Z,0
2017-06-12T02:58:38.101Z,0
2017-06-12T02:59:38.405Z,0
2017-06-12T03:00:38.406Z,0
2017-06-12T03:01:38.399Z,0
2017-06-12T03:02:38.402Z,0
2017-06-12T03:03:38.398Z,0
2017-06-12T03:04:37.783Z,0
2017-06-12T03:05:38.089Z,0
2017-06-12T03:06:38.088Z,0
2017-06-12T03:07:38.080Z,0
2017-06-12T03:08:38.386Z,0
2017-06-12T03:09:38.387Z,0
2017-06-12T03:10:38.077Z,0
2017-06-12T03:11:38.404Z,0
2017-06-12T03:12:38.382Z,0
2017-06-12T03:13:38.072Z,0
2017-06-12T03:14:38.068Z,0
2017-06-12T03:15:38.377Z,0
2017-06-12T03:16:38.369Z,0
2017-06-12T03:17:38.372Z,0
2017-06-12T03:18:38.372Z,0
2017-06-12T03:19:38.057Z,0
2017-06-12T03:20:37.754Z,0
2017-06-12T03:21:38.060Z,0
2017-06-12T03:22:38.049Z,0
2017-06-12T03:23:38.361Z,0
2017-06-12T03:24:38.048Z,0
2017-06-12T03:25:38.050Z,0
2017-06-12T03:26:38.349Z,0
2017-06-12T03:27:38.367Z,0
2017-06-12T03:28:38.350Z,0
2017-06-12T03:29:38.039Z,0
2017-06-12T03:30:38.050Z,0
2017-06-12T03:31:38.340Z,0
2017-06-12T03:32:38.042Z,0
2017-06-12T03:33:38.033Z,5
2017-06-12T03:34:38.334Z,5
2017-06-12T03:35:38.340Z,5
2017-06-12T03:36:38.335Z,5
2017-06-12T03:37:38.329Z,5
2017-06-12T03:38:38.023Z,5
2017-06-12T03:39:38.333Z,5
2017-06-12T03:40:38.017Z,5
2017-06-12T03:41:38.015Z,5
2017-06-12T03:42:38.017Z,5
2017-06-12T03:43:38.324Z,5
2017-06-12T03:44:37.708Z,5
2017-06-12T03:45:38.317Z,5
2017-06-12T03:46:38.314Z,5
2017-06-12T03:47:37.703Z,5
2017-06-12T03:48:37.707Z,5
2017-06-12T03:49:38.010Z,5
2017-06-12T03:50:38.012Z,5
2017-06-12T03:51:37.691Z,5
2017-06-12T03:52:38.304Z,5
2017-06-12T03:53:37.995Z,5
2017-06-12T03:54:38.299Z,5
2017-06-12T03:55:37.992Z,5
2017-06-12T03:56:38.006Z,5
2017-06-12T03:57:38.292Z,5
2017-06-12T03:58:37.985Z,5
2017-06-12T03:59:38.285Z,10
2017-06-12T04:00:37.980Z,10
2017-06-12T04:01:38.286Z,10
2017-06-12T04:02:37.678Z,10
2017-06-12T04:03:38.281Z,10
2017-06-12T04:04:38.280Z,15
2017-06-12T04:05:37.969Z,15
2017-06-12T04:06:37.674Z,15
2017-06-12T04:07:37.961Z,15
2017-06-12T04:08:37.980Z,15
2017-06-12T04:09:38.269Z,10
2017-06-12T04:10:37.961Z,15
2017-06-12T04:11:37.961Z,15
2017-06-12T04:12:37.961Z,15
2017-06-12T04:13:37.954Z,15
2017-06-12T04:14:37.962Z,30
2017-06-12T04:15:37.952Z,30
2017-06-12T04:16:37.948Z,30
2017-06-12T04:17:37.643Z,25
2017-06-12T04:18:37.943Z,35
2017-06-12T04:19:37.942Z,45
2017-06-12T04:20:37.946Z,50
2017-06-12T04:21:37.642Z,50
2017-06-12T04:22:38.253Z,55
2017-06-12T04:23:38.446Z,55
2017-06-12T04:24:37.938Z,60
2017-06-12T04:25:37.933Z,60
2017-06-12T04:26:37.935Z,60
2017-06-12T04:27:37.936Z,60
2017-06-12T04:28:37.926Z,55
2017-06-12T04:29:37.620Z,45
2017-06-12T04:30:38.233Z,45
2017-06-12T04:31:37.927Z,35
2017-06-12T04:32:38.228Z,35
2017-06-12T04:33:37.913Z,40
2017-06-12T04:34:37.921Z,40
2017-06-12T04:35:37.922Z,45
2017-06-12T04:36:37.938Z,45
2017-06-12T04:37:37.912Z,50
2017-06-12T04:38:38.221Z,50
2017-06-12T04:39:38.219Z,60
2017-06-12T04:40:37.940Z,60
2017-06-12T04:41:37.914Z,55
2017-06-12T04:42:38.215Z,45
2017-06-12T04:43:37.908Z,45
2017-06-12T04:44:37.601Z,40
2017-06-12T04:45:37.608Z,40
2017-06-12T04:46:37.906Z,40
2017-06-12T04:47:38.212Z,40
2017-06-12T04:48:38.206Z,40
2017-06-12T04:49:37.900Z,35
2017-06-12T04:50:38.111Z,35
2017-06-12T04:51:37.901Z,30
2017-06-12T04:52:38.200Z,30
2017-06-12T04:53:37.892Z,30
2017-06-12T04:54:37.893Z,25
2017-06-12T04:55:37.888Z,25
2017-06-12T04:56:37.893Z,30
2017-06-12T04:57:38.192Z,30
2017-06-12T04:58:38.193Z,30
2017-06-12T04:59:38.193Z,30
2017-06-12T05:00:37.885Z,35
2017-06-12T05:01:38.184Z,35
2017-06-12T05:02:37.582Z,35
2017-06-12T05:03:37.880Z,35
2017-06-12T05:04:37.568Z,40
2017-06-12T05:05:37.875Z,90
2017-06-12T05:06:37.873Z,45
2017-06-12T05:07:38.177Z,85
2017-06-12T05:08:37.879Z,45
2017-06-12T05:09:37.562Z,45
2017-06-12T05:10:38.171Z,40
2017-06-12T05:11:37.866Z,40
2017-06-12T05:12:37.870Z,40
2017-06-12T05:13:37.558Z,35
2017-06-12T05:14:37.861Z,35
2017-06-12T05:15:37.859Z,35
2017-06-12T05:16:37.552Z,35
2017-06-12T05:17:38.169Z,30
2017-06-12T05:18:37.852Z,30
2017-06-12T05:19:37.549Z,30
2017-06-12T05:20:37.849Z,30
2017-06-12T05:21:37.846Z,30
2017-06-12T05:22:38.157Z,30
2017-06-12T05:23:38.157Z,25
2017-06-12T05:24:38.150Z,25
2017-06-12T05:25:38.060Z,30
2017-06-12T05:26:37.845Z,30
2017-06-12T05:27:38.152Z,30
2017-06-12T05:28:37.844Z,30
2017-06-12T05:29:38.145Z,35
2017-06-12T05:30:38.145Z,35
2017-06-12T05:31:37.532Z,40
2017-06-12T05:32:38.162Z,40
2017-06-12T05:33:37.838Z,40
2017-06-12T05:34:38.138Z,35
2017-06-12T05:35:38.142Z,35
2017-06-12T05:36:37.824Z,35
2017-06-12T05:37:38.140Z,35
2017-06-12T05:38:38.134Z,35
2017-06-12T05:39:37.827Z,35
2017-06-12T05:40:37.821Z,35
2017-06-12T05:41:37.820Z,40
2017-06-12T05:42:37.816Z,40
2017-06-12T05:43:38.127Z,50
2017-06-12T05:44:38.120Z,55
2017-06-12T05:45:38.121Z,60
2017-06-12T05:46:37.508Z,65
2017-06-12T05:47:37.812Z,75
2017-06-12T05:48:38.116Z,85
2017-06-12T05:49:38.118Z,90
2017-06-12T05:50:37.807Z,85
2017-06-12T05:51:38.115Z,85
2017-06-12T05:52:37.499Z,85
2017-06-12T05:53:37.494Z,85
2017-06-12T05:54:37.800Z,85
2017-06-12T05:55:37.491Z,85
2017-06-12T05:56:37.181Z,90
2017-06-12T05:57:37.490Z,95
2017-06-12T05:58:37.799Z,90
2017-06-12T05:59:38.099Z,85
2017-06-12T06:00:38.101Z,80
2017-06-12T06:01:38.096Z,70
2017-06-12T06:02:38.095Z,60
2017-06-12T06:03:38.095Z,50
2017-06-12T06:04:38.097Z,45
2017-06-12T06:05:38.096Z,45
2017-06-12T06:06:37.784Z,40
2017-06-12T06:07:37.790Z,40
2017-06-12T06:08:37.780Z,40
2017-06-12T06:09:38.094Z,45
2017-06-12T06:10:38.086Z,45
2017-06-12T06:11:37.796Z,45
2017-06-12T06:12:38.083Z,40
2017-06-12T06:13:37.469Z,45
2017-06-12T06:14:37.771Z,45
2017-06-12T06:15:37.772Z,45
2017-06-12T06:16:37.793Z,40
2017-06-12T06:17:37.770Z,45
2017-06-12T06:18:37.467Z,40
2017-06-12T06:19:37.764Z,45
2017-06-12T06:20:37.150Z,45
2017-06-12T06:21:37.467Z,45
2017-06-12T06:22:38.076Z,45
2017-06-12T06:23:37.760Z,45
2017-06-12T06:24:37.756Z,45
2017-06-12T06:25:38.064Z,45
2017-06-12T06:26:37.759Z,45
2017-06-12T06:27:37.758Z,50
2017-06-12T06:28:38.062Z,45
2017-06-12T06:29:37.751Z,45
2017-06-12T06:30:37.748Z,40
2017-06-12T06:31:37.752Z,35
2017-06-12T06:32:37.447Z,30
2017-06-12T06:33:37.743Z,25
2017-06-12T06:34:38.055Z,25
2017-06-12T06:35:38.054Z,20
2017-06-12T06:36:37.740Z,20
2017-06-12T06:37:37.746Z,20
2017-06-12T06:38:37.736Z,25
2017-06-12T06:39:38.043Z,25
2017-06-12T06:40:38.044Z,25
2017-06-12T06:41:37.739Z,25
2017-06-12T06:42:37.734Z,25
2017-06-12T06:43:38.047Z,20
2017-06-12T06:44:38.042Z,20
2017-06-12T06:45:38.037Z,15
2017-06-12T06:46:37.426Z,15
2017-06-12T06:47:38.034Z,15
2017-06-12T06:48:37.631Z,15
2017-06-12T06:49:38.037Z,15
2017-06-12T06:50:38.029Z,15
2017-06-12T06:51:38.032Z,15
2017-06-12T06:52:37.723Z,20
2017-06-12T06:53:37.720Z,20
2017-06-12T06:54:38.022Z,25
2017-06-12T06:55:37.711Z,25
2017-06-12T06:56:37.410Z,20
2017-06-12T06:57:38.018Z,20
2017-06-12T06:58:37.405Z,20
2017-06-12T06:59:37.713Z,20
2017-06-12T07:00:38.012Z,25
2017-06-12T07:01:38.014Z,30
2017-06-12T07:02:38.010Z,30
2017-06-12T07:03:38.009Z,30
2017-06-12T07:04:38.009Z,30
2017-06-12T07:05:37.703Z,25
2017-06-12T07:06:37.700Z,25
2017-06-12T07:07:38.004Z,25
2017-06-12T07:08:38.001Z,20
2017-06-12T07:09:37.080Z,20
2017-06-12T07:10:37.689Z,20
2017-06-12T07:11:37.994Z,20
2017-06-12T07:12:37.996Z,25
2017-06-12T07:13:37.992Z,25
2017-06-12T07:14:37.688Z,30
2017-06-12T07:15:37.379Z,30
2017-06-12T07:16:37.677Z,30
2017-06-12T07:17:37.683Z,30
2017-06-12T07:18:37.375Z,30
2017-06-12T07:19:37.678Z,30
2017-06-12T07:20:37.984Z,30
2017-06-12T07:21:37.678Z,25
2017-06-12T07:22:37.979Z,30
2017-06-12T07:23:37.674Z,30
2017-06-12T07:24:37.673Z,30
2017-06-12T07:25:37.669Z,30
2017-06-12T07:26:37.665Z,30
2017-06-12T07:27:37.671Z,30
2017-06-12T07:28:37.967Z,35
2017-06-12T07:29:37.372Z,40
2017-06-12T07:30:37.967Z,35
2017-06-12T07:31:37.970Z,35
2017-06-12T07:32:37.965Z,35
2017-06-12T07:33:37.964Z,40
2017-06-12T07:34:37.649Z,45
2017-06-12T07:35:37.654Z,40
2017-06-12T07:36:37.653Z,35
2017-06-12T07:37:37.354Z,30
2017-06-12T07:38:37.647Z,25
2017-06-12T07:39:37.051Z,25
2017-06-12T07:40:37.649Z,20
2017-06-12T07:41:37.952Z,20
2017-06-12T07:42:37.645Z,20
2017-06-12T07:43:37.948Z,25
2017-06-12T07:44:37.946Z,25
2017-06-12T07:45:37.636Z,30
2017-06-12T07:46:37.330Z,30
2017-06-12T07:47:37.943Z,25
2017-06-12T07:48:37.634Z,20
2017-06-12T07:49:37.939Z,20
2017-06-12T07:50:37.937Z,20
2017-06-12T07:51:37.628Z,20
2017-06-12T07:52:37.935Z,20
2017-06-12T07:53:37.932Z,20
2017-06-12T07:54:37.618Z,20
2017-06-12T07:55:37.929Z,20
2017-06-12T07:56:37.922Z,25
2017-06-12T07:57:37.926Z,30
2017-06-12T07:58:37.308Z,40
2017-06-12T07:59:37.618Z,45
2017-06-12T08:00:37.918Z,50
2017-06-12T08:01:37.915Z,50
2017-06-12T08:02:37.914Z,50
2017-06-12T08:03:37.297Z,45
2017-06-12T08:04:37.310Z,45
2017-06-12T08:05:37.605Z,40
2017-06-12T08:06:37.604Z,40
2017-06-12T08:07:37.904Z,45
2017-06-12T08:08:37.603Z,45
2017-06-12T08:09:37.598Z,40
2017-06-12T08:10:37.296Z,35
2017-06-12T08:11:37.901Z,35
2017-06-12T08:12:37.593Z,40
2017-06-12T08:13:37.897Z,45
2017-06-12T08:14:37.589Z,45
2017-06-12T08:15:37.590Z,45
2017-06-12T08:16:36.974Z,45
2017-06-12T08:17:37.890Z,45
2017-06-12T08:18:37.593Z,50
2017-06-12T08:19:37.282Z,50
2017-06-12T08:20:37.581Z,60
2017-06-12T08:21:37.887Z,75
2017-06-12T08:22:37.880Z,80
2017-06-12T08:23:37.585Z,75
2017-06-12T08:24:37.573Z,70
2017-06-12T08:25:37.576Z,70
2017-06-12T08:26:37.569Z,70
2017-06-12T08:27:37.877Z,75
2017-06-12T08:28:37.263Z,95
2017-06-12T08:29:37.872Z,105
2017-06-12T08:30:37.565Z,100
2017-06-12T08:31:37.872Z,100
2017-06-12T08:32:36.950Z,100
2017-06-12T08:33:37.871Z,100
2017-06-12T08:34:37.867Z,100
2017-06-12T08:35:37.253Z,100
2017-06-12T08:36:37.859Z,120
2017-06-12T08:37:37.253Z,130
2017-06-12T08:38:37.556Z,140
2017-06-12T08:39:37.866Z,145
2017-06-12T08:40:37.251Z,145
2017-06-12T08:41:37.859Z,130
2017-06-12T08:42:37.550Z,120
2017-06-12T08:43:37.545Z,105
2017-06-12T08:44:37.244Z,95
2017-06-12T08:45:37.554Z,95
2017-06-12T08:46:37.242Z,95
2017-06-12T08:47:37.851Z,95
2017-06-12T08:48:37.244Z,95
2017-06-12T08:49:37.848Z,95
2017-06-12T08:50:37.545Z,105
2017-06-12T08:51:37.845Z,130
2017-06-12T08:52:37.546Z,135
2017-06-12T08:53:37.841Z,140
2017-06-12T08:54:37.238Z,135
2017-06-12T08:55:37.536Z,125
2017-06-12T08:56:37.845Z,120
2017-06-12T08:57:37.538Z,140
2017-06-12T08:58:37.842Z,160
2017-06-12T08:59:37.532Z,175
2017-06-12T09:00:37.837Z,165
2017-06-12T09:01:37.530Z,145
2017-06-12T09:02:37.531Z,130
2017-06-12T09:03:37.223Z,120
2017-06-12T09:04:37.530Z,115
2017-06-12T09:05:37.831Z,135
2017-06-12T09:06:37.833Z,135
2017-06-12T09:07:37.525Z,125
2017-06-12T09:08:37.524Z,130
2017-06-12T09:09:37.526Z,135
2017-06-12T09:10:37.835Z,140
2017-06-12T09:11:37.830Z,140
2017-06-12T09:12:37.528Z,140
2017-06-12T09:13:37.215Z,140
2017-06-12T09:14:37.834Z,140
2017-06-12T09:15:37.518Z,150
2017-06-12T09:16:37.526Z,150
2017-06-12T09:17:37.520Z,140
2017-06-12T09:18:37.821Z,140
2017-06-12T09:19:37.516Z,135
2017-06-12T09:20:37.515Z,145
2017-06-12T09:21:37.824Z,160
2017-06-12T09:22:37.825Z,160
2017-06-12T09:23:37.519Z,155
2017-06-12T09:24:37.515Z,150
2017-06-12T09:25:37.210Z,150
2017-06-12T09:26:37.513Z,150
2017-06-12T09:27:37.818Z,150
2017-06-12T09:28:37.516Z,145
2017-06-12T09:29:37.511Z,140
2017-06-12T09:30:37.530Z,140
2017-06-12T09:31:37.510Z,135
2017-06-12T09:32:37.517Z,135
2017-06-12T09:33:37.510Z,135
2017-06-12T09:34:37.816Z,145
2017-06-12T09:35:37.504Z,145
2017-06-12T09:36:37.508Z,150
2017-06-12T09:37:37.508Z,155
2017-06-12T09:38:37.210Z,160
2017-06-12T09:39:37.815Z,160
2017-06-12T09:40:37.202Z,165
2017-06-12T09:41:37.507Z,145
2017-06-12T09:42:37.503Z,145
2017-06-12T09:43:37.507Z,150
2017-06-12T09:44:37.505Z,150
2017-06-12T09:45:37.816Z,155
2017-06-12T09:46:37.504Z,155
2017-06-12T09:47:37.814Z,150
2017-06-12T09:48:37.531Z,150
2017-06-12T09:49:37.502Z,135
2017-06-12T09:50:37.833Z,130
2017-06-12T09:51:37.510Z,120
2017-06-12T09:52:37.506Z,115
2017-06-12T09:53:37.505Z,115
2017-06-12T09:54:37.815Z,110
2017-06-12T09:55:36.898Z,100
2017-06-12T09:56:37.199Z,100
2017-06-12T09:57:37.507Z,115
2017-06-12T09:58:37.811Z,105
2017-06-12T09:59:37.810Z,85
2017-06-12T10:00:37.502Z,90
2017-06-12T10:01:36.889Z,85
2017-06-12T10:02:37.501Z,80
2017-06-12T10:03:37.804Z,80
2017-06-12T10:04:37.499Z,80
2017-06-12T10:05:37.810Z,80
2017-06-12T10:06:37.497Z,80
2017-06-12T10:07:37.803Z,80
2017-06-12T10:08:37.495Z,80
2017-06-12T10:09:37.803Z,80
2017-06-12T10:10:37.804Z,80
2017-06-12T10:11:37.803Z,80
2017-06-12T10:12:37.804Z,80
2017-06-12T10:13:37.491Z,80
2017-06-12T10:14:36.883Z,80
2017-06-12T10:15:37.492Z,80
2017-06-12T10:16:37.801Z,80
2017-06-12T10:17:37.183Z,80
2017-06-12T10:18:37.491Z,80
2017-06-12T10:19:37.491Z,70
2017-06-12T10:20:37.799Z,75
2017-06-12T10:21:37.485Z,80
2017-06-12T10:22:37.793Z,75
2017-06-12T10:23:37.792Z,75
2017-06-12T10:24:37.179Z,85
2017-06-12T10:25:37.797Z,95
2017-06-12T10:26:37.179Z,105
2017-06-12T10:27:37.481Z,110
2017-06-12T10:28:37.791Z,105
2017-06-12T10:29:37.485Z,105
2017-06-12T10:30:37.483Z,100
2017-06-12T10:31:37.482Z,95
2017-06-12T10:32:37.786Z,90
2017-06-12T10:33:37.481Z,100
2017-06-12T10:34:37.783Z,100
2017-06-12T10:35:37.169Z,105
2017-06-12T10:36:37.167Z,100
2017-06-12T10:37:37.474Z,110
2017-06-12T10:38:37.173Z,120
2017-06-12T10:39:37.781Z,120
2017-06-12T10:40:37.479Z,115
2017-06-12T10:41:37.470Z,120
2017-06-12T10:42:37.777Z,130
2017-06-12T10:43:37.163Z,125
2017-06-12T10:44:37.163Z,115
2017-06-12T10:45:37.777Z,115
2017-06-12T10:46:37.774Z,110
2017-06-12T10:47:37.472Z,115
2017-06-12T10:48:37.470Z,125
2017-06-12T10:49:37.779Z,125
2017-06-12T10:50:37.468Z,115
2017-06-12T10:51:37.471Z,135
2017-06-12T10:52:37.773Z,130
2017-06-12T10:53:37.160Z,115
2017-06-12T10:54:37.159Z,120
2017-06-12T10:55:37.767Z,110
2017-06-12T10:56:37.767Z,95
2017-06-12T10:57:37.158Z,95
2017-06-12T10:58:37.766Z,95
2017-06-12T10:59:37.768Z,90
2017-06-12T11:00:37.767Z,100
2017-06-12T11:01:37.769Z,105
2017-06-12T11:02:37.463Z,110
2017-06-12T11:03:37.182Z,100
2017-06-12T11:04:37.466Z,85
2017-06-12T11:05:37.765Z,100
2017-06-12T11:06:37.460Z,105
2017-06-12T11:07:37.766Z,95
2017-06-12T11:08:37.154Z,85
2017-06-12T11:09:37.458Z,80
2017-06-12T11:10:37.766Z,80
2017-06-12T11:11:37.768Z,70
2017-06-12T11:12:37.454Z,75
2017-06-12T11:13:37.459Z,85
2017-06-12T11:14:37.456Z,90
2017-06-12T11:15:37.454Z,90
2017-06-12T11:16:37.455Z,80
2017-06-12T11:17:37.760Z,75
2017-06-12T11:18:37.459Z,75
2017-06-12T11:19:37.766Z,70
2017-06-12T11:20:37.306Z,70
2017-06-12T11:21:37.456Z,65
2017-06-12T11:22:37.458Z,60
2017-06-12T11:23:37.452Z,65
2017-06-12T11:24:37.785Z,65
2017-06-12T11:25:37.455Z,90
2017-06-12T11:26:37.144Z,95
2017-06-12T11:27:37.755Z,100
2017-06-12T11:28:37.142Z,90
2017-06-12T11:29:37.451Z,75
2017-06-12T11:30:37.754Z,70
2017-06-12T11:31:37.447Z,75
2017-06-12T11:32:37.458Z,70
2017-06-12T11:33:37.143Z,70
2017-06-12T11:34:37.446Z,70
2017-06-12T11:35:37.750Z,70
2017-06-12T11:36:37.750Z,65
2017-06-12T11:37:37.450Z,80
2017-06-12T11:38:37.443Z,90
2017-06-12T11:39:37.442Z,85
2017-06-12T11:40:37.751Z,75
2017-06-12T11:41:37.751Z,70
2017-06-12T11:42:37.132Z,70
2017-06-12T11:43:36.522Z,70
2017-06-12T11:44:37.439Z,65
2017-06-12T11:45:37.157Z,65
2017-06-12T11:46:37.745Z,70
2017-06-12T11:47:37.744Z,75
2017-06-12T11:48:37.441Z,70
2017-06-12T11:49:37.443Z,65
2017-06-12T11:50:37.124Z,75
2017-06-12T11:51:37.739Z,70
2017-06-12T11:52:37.736Z,80
2017-06-12T11:53:37.436Z,90
2017-06-12T11:54:37.436Z,100
2017-06-12T11:55:36.822Z,105
2017-06-12T11:56:37.126Z,110
2017-06-12T11:57:37.123Z,100
2017-06-12T11:58:37.741Z,105
2017-06-12T11:59:37.427Z,100
2017-06-12T12:00:37.432Z,95
2017-06-12T12:01:37.428Z,95
2017-06-12T12:02:37.430Z,100
2017-06-12T12:03:37.424Z,85
2017-06-12T12:04:37.124Z,80
2017-06-12T12:05:37.728Z,75
2017-06-12T12:06:37.733Z,75
2017-06-12T12:07:37.422Z,90
2017-06-12T12:08:37.723Z,105
2017-06-12T12:09:37.432Z,105
2017-06-12T12:10:37.738Z,95
2017-06-12T12:11:37.117Z,85
2017-06-12T12:12:37.422Z,80
2017-06-12T12:13:37.418Z,85
2017-06-12T12:14:37.113Z,100
2017-06-12T12:15:37.725Z,95
2017-06-12T12:16:37.418Z,90
2017-06-12T12:17:37.722Z,85
2017-06-12T12:18:37.723Z,75
2017-06-12T12:19:37.719Z,65
2017-06-12T12:20:37.726Z,60
2017-06-12T12:21:37.730Z,60
2017-06-12T12:22:37.722Z,60
2017-06-12T12:23:37.729Z,60
2017-06-12T12:24:37.411Z,70
2017-06-12T12:25:37.721Z,75
2017-06-12T12:26:37.722Z,65
2017-06-12T12:27:37.720Z,70
2017-06-12T12:28:37.410Z,70
2017-06-12T12:29:37.715Z,75
2017-06-12T12:30:37.407Z,75
2017-06-12T12:31:37.714Z,75
2017-06-12T12:32:37.411Z,70
2017-06-12T12:33:37.714Z,70
2017-06-12T12:34:37.426Z,65
2017-06-12T12:35:37.107Z,60
2017-06-12T12:36:37.409Z,60
2017-06-12T12:37:37.710Z,60
2017-06-12T12:38:37.410Z,60
2017-06-12T12:39:37.405Z,65
2017-06-12T12:40:37.713Z,65
2017-06-12T12:41:36.791Z,60
2017-06-12T12:42:37.102Z,60
2017-06-12T12:43:37.404Z,55
2017-06-12T12:44:37.711Z,55
2017-06-12T12:45:37.404Z,55
2017-06-12T12:46:37.407Z,55
2017-06-12T12:47:37.706Z,55
2017-06-12T12:48:37.705Z,55
2017-06-12T12:49:37.096Z,55
2017-06-12T12:50:37.702Z,55
2017-06-12T12:51:37.399Z,55
2017-06-12T12:52:37.704Z,55
2017-06-12T12:53:37.705Z,55
2017-06-12T12:54:37.397Z,60
2017-06-12T12:55:37.394Z,50
2017-06-12T12:56:37.400Z,55
2017-06-12T12:57:37.392Z,55
2017-06-12T12:58:37.101Z,55
2017-06-12T12:59:37.093Z,55
2017-06-12T13:00:37.392Z,55
2017-06-12T13:01:37.395Z,50
2017-06-12T13:02:37.394Z,50
2017-06-12T13:03:37.395Z,50
2017-06-12T13:04:37.395Z,50
2017-06-12T13:05:37.085Z,50
2017-06-12T13:06:37.083Z,45
2017-06-12T13:07:37.694Z,45
2017-06-12T13:08:37.689Z,45
2017-06-12T13:09:37.394Z,45
2017-06-12T13:10:37.691Z,50
2017-06-12T13:11:37.695Z,45
2017-06-12T13:12:37.385Z,45
2017-06-12T13:13:37.700Z,40
2017-06-12T13:14:37.686Z,40
2017-06-12T13:15:37.692Z,45
2017-06-12T13:16:37.685Z,45
2017-06-12T13:17:37.077Z,40
2017-06-12T13:18:37.382Z,40
2017-06-12T13:19:37.686Z,45
2017-06-12T13:20:37.379Z,45
2017-06-12T13:21:37.682Z,45
2017-06-12T13:22:37.375Z,45
2017-06-12T13:23:37.379Z,45
2017-06-12T13:24:37.682Z,45
2017-06-12T13:25:37.372Z,45
2017-06-12T13:26:37.681Z,45
2017-06-12T13:27:37.684Z,45
2017-06-12T13:28:37.066Z,45
2017-06-12T13:29:37.683Z,45
2017-06-12T13:30:37.678Z,45
2017-06-12T13:31:37.674Z,45
2017-06-12T13:32:37.370Z,45
2017-06-12T13:33:37.070Z,45
2017-06-12T13:34:37.675Z,45
2017-06-12T13:35:37.373Z,45
2017-06-12T13:36:37.667Z,45
2017-06-12T13:37:37.673Z,45
2017-06-12T13:38:37.362Z,45
2017-06-12T13:39:37.397Z,45
2017-06-12T13:40:37.364Z,45
2017-06-12T13:41:37.359Z,45
2017-06-12T13:42:37.362Z,45
2017-06-12T13:43:37.050Z,45
2017-06-12T13:44:37.358Z,45
2017-06-12T13:45:37.658Z,45
2017-06-12T13:46:37.658Z,45
2017-06-12T13:47:37.354Z,45
2017-06-12T13:48:37.685Z,45
2017-06-12T13:49:36.741Z,45
2017-06-12T13:50:37.656Z,45
2017-06-12T13:51:37.657Z,45
2017-06-12T13:52:37.657Z,50
2017-06-12T13:53:37.652Z,45
2017-06-12T13:54:37.658Z,50
2017-06-12T13:55:37.354Z,50
2017-06-12T13:56:37.350Z,45
2017-06-12T13:57:37.652Z,45
2017-06-12T13:58:37.341Z,40
2017-06-12T13:59:37.651Z,45
2017-06-12T14:00:37.346Z,50
2017-06-12T14:01:37.653Z,50
2017-06-12T14:02:37.344Z,45
2017-06-12T14:03:37.650Z,45
2017-06-12T14:04:37.647Z,45
2017-06-12T14:05:37.340Z,45
2017-06-12T14:06:37.335Z,50
2017-06-12T14:07:37.650Z,45
2017-06-12T14:08:37.643Z,50
2017-06-12T14:09:37.337Z,60
2017-06-12T14:10:37.030Z,60
2017-06-12T14:11:37.641Z,65
2017-06-12T14:12:37.642Z,55
2017-06-12T14:13:37.641Z,55
2017-06-12T14:14:37.636Z,50
2017-06-12T14:15:37.641Z,50
2017-06-12T14:16:37.634Z,50
2017-06-12T14:17:37.023Z,55
2017-06-12T14:18:37.331Z,65
2017-06-12T14:19:37.329Z,55